sensor_id;sensor_type;location;lat;lon;timestamp;temperature;humidity
33476;DHT22;19814;48.224;11.422;2023-03-01T00:01:49;2.20;99.30
33476;DHT22;19814;48.224;11.422;2023-03-01T00:04:15;2.20;99.10
33476;DHT22;19814;48.224;11.422;2023-03-01T00:06:42;2.10;99.40
33476;DHT22;19814;48.224;11.422;2023-03-01T00:09:08;2.10;99.20
33476;DHT22;19814;48.224;11.422;2023-03-01T00:11:33;2.00;99.60
33476;DHT22;19814;48.224;11.422;2023-03-01T00:14:00;1.90;99.50
33476;DHT22;19814;48.224;11.422;2023-03-01T00:16:27;1.90;99.90
33476;DHT22;19814;48.224;11.422;2023-03-01T00:18:54;1.90;99.90
33476;DHT22;19814;48.224;11.422;2023-03-01T00:21:20;2.00;99.80
33476;DHT22;19814;48.224;11.422;2023-03-01T00:23:46;2.10;99.60
33476;DHT22;19814;48.224;11.422;2023-03-01T00:26:13;2.10;99.50
33476;DHT22;19814;48.224;11.422;2023-03-01T00:28:39;2.10;99.40
33476;DHT22;19814;48.224;11.422;2023-03-01T00:31:05;2.10;99.40
33476;DHT22;19814;48.224;11.422;2023-03-01T00:33:31;2.20;99.60
33476;DHT22;19814;48.224;11.422;2023-03-01T00:36:00;2.10;99.50
33476;DHT22;19814;48.224;11.422;2023-03-01T00:38:25;2.10;99.20
33476;DHT22;19814;48.224;11.422;2023-03-01T00:40:51;2.10;99.40
33476;DHT22;19814;48.224;11.422;2023-03-01T00:43:16;2.10;99.30
33476;DHT22;19814;48.224;11.422;2023-03-01T00:45:42;2.10;99.20
33476;DHT22;19814;48.224;11.422;2023-03-01T00:48:07;2.10;99.20
33476;DHT22;19814;48.224;11.422;2023-03-01T00:50:33;2.10;99.40
33476;DHT22;19814;48.224;11.422;2023-03-01T00:52:58;2.10;99.40
33476;DHT22;19814;48.224;11.422;2023-03-01T00:55:25;2.10;99.40
33476;DHT22;19814;48.224;11.422;2023-03-01T00:57:50;2.10;99.40
33476;DHT22;19814;48.224;11.422;2023-03-01T01:00:16;2.10;99.60
33476;DHT22;19814;48.224;11.422;2023-03-01T01:02:41;2.10;99.60
33476;DHT22;19814;48.224;11.422;2023-03-01T01:05:07;2.10;99.40
33476;DHT22;19814;48.224;11.422;2023-03-01T01:07:33;2.10;99.60
33476;DHT22;19814;48.224;11.422;2023-03-01T01:09:58;2.00;99.60
33476;DHT22;19814;48.224;11.422;2023-03-01T01:12:23;2.00;99.50
33476;DHT22;19814;48.224;11.422;2023-03-01T01:14:49;2.10;99.50
33476;DHT22;19814;48.224;11.422;2023-03-01T01:17:14;2.10;99.50
33476;DHT22;19814;48.224;11.422;2023-03-01T01:19:40;2.00;99.50
33476;DHT22;19814;48.224;11.422;2023-03-01T01:22:05;2.10;99.60
33476;DHT22;19814;48.224;11.422;2023-03-01T01:24:31;2.10;99.40
33476;DHT22;19814;48.224;11.422;2023-03-01T01:26:56;2.10;99.30
33476;DHT22;19814;48.224;11.422;2023-03-01T01:29:22;2.00;99.40
33476;DHT22;19814;48.224;11.422;2023-03-01T01:31:47;1.90;99.50
33476;DHT22;19814;48.224;11.422;2023-03-01T01:34:14;1.90;99.40
33476;DHT22;19814;48.224;11.422;2023-03-01T01:36:40;1.90;99.60
33476;DHT22;19814;48.224;11.422;2023-03-01T01:39:06;1.90;99.60
33476;DHT22;19814;48.224;11.422;2023-03-01T01:41:31;1.80;99.60
33476;DHT22;19814;48.224;11.422;2023-03-01T01:44:14;1.90;99.80
33476;DHT22;19814;48.224;11.422;2023-03-01T01:46:44;1.90;99.80
33476;DHT22;19814;48.224;11.422;2023-03-01T01:49:19;2.00;99.60
33476;DHT22;19814;48.224;11.422;2023-03-01T01:51:49;1.90;99.60
33476;DHT22;19814;48.224;11.422;2023-03-01T01:54:20;1.90;99.70
33476;DHT22;19814;48.224;11.422;2023-03-01T01:56:48;1.90;99.70
33476;DHT22;19814;48.224;11.422;2023-03-01T01:59:14;1.90;99.80
33476;DHT22;19814;48.224;11.422;2023-03-01T02:01:40;1.90;99.60
33476;DHT22;19814;48.224;11.422;2023-03-01T02:04:05;2.00;99.60
33476;DHT22;19814;48.224;11.422;2023-03-01T02:06:36;1.90;99.60
33476;DHT22;19814;48.224;11.422;2023-03-01T02:09:11;2.00;99.60
33476;DHT22;19814;48.224;11.422;2023-03-01T02:11:37;1.90;99.70
33476;DHT22;19814;48.224;11.422;2023-03-01T02:14:03;2.00;99.80
33476;DHT22;19814;48.224;11.422;2023-03-01T02:16:29;2.00;99.80
33476;DHT22;19814;48.224;11.422;2023-03-01T02:18:56;2.00;99.80
33476;DHT22;19814;48.224;11.422;2023-03-01T02:21:38;1.90;99.50
33476;DHT22;19814;48.224;11.422;2023-03-01T02:26:53;1.70;99.90
33476;DHT22;19814;48.224;11.422;2023-03-01T02:29:21;1.80;99.90
33476;DHT22;19814;48.224;11.422;2023-03-01T02:31:46;1.80;99.90
33476;DHT22;19814;48.224;11.422;2023-03-01T02:34:13;1.80;99.90
33476;DHT22;19814;48.224;11.422;2023-03-01T02:36:49;1.80;99.90
33476;DHT22;19814;48.224;11.422;2023-03-01T02:39:17;1.80;99.80
33476;DHT22;19814;48.224;11.422;2023-03-01T02:41:46;1.90;99.90
33476;DHT22;19814;48.224;11.422;2023-03-01T02:44:12;1.90;99.70
33476;DHT22;19814;48.224;11.422;2023-03-01T02:46:44;1.90;99.80
33476;DHT22;19814;48.224;11.422;2023-03-01T02:49:44;1.90;99.60
33476;DHT22;19814;48.224;11.422;2023-03-01T02:52:08;1.80;99.70
33476;DHT22;19814;48.224;11.422;2023-03-01T02:57:10;1.80;99.40
33476;DHT22;19814;48.224;11.422;2023-03-01T02:59:36;1.70;99.40
33476;DHT22;19814;48.224;11.422;2023-03-01T03:02:05;1.70;99.50
33476;DHT22;19814;48.224;11.422;2023-03-01T03:04:30;1.60;99.60
33476;DHT22;19814;48.224;11.422;2023-03-01T03:06:56;1.60;99.90
33476;DHT22;19814;48.224;11.422;2023-03-01T03:09:21;1.70;99.90
33476;DHT22;19814;48.224;11.422;2023-03-01T03:11:47;1.70;99.40
33476;DHT22;19814;48.224;11.422;2023-03-01T03:14:13;1.70;99.30
33476;DHT22;19814;48.224;11.422;2023-03-01T03:16:43;1.60;99.30
33476;DHT22;19814;48.224;11.422;2023-03-01T03:19:09;1.50;99.50
33476;DHT22;19814;48.224;11.422;2023-03-01T03:21:34;1.50;99.40
33476;DHT22;19814;48.224;11.422;2023-03-01T03:24:00;1.50;99.50
33476;DHT22;19814;48.224;11.422;2023-03-01T03:26:25;1.60;99.20
33476;DHT22;19814;48.224;11.422;2023-03-01T03:28:51;1.50;99.20
33476;DHT22;19814;48.224;11.422;2023-03-01T03:31:17;1.60;99.30
33476;DHT22;19814;48.224;11.422;2023-03-01T03:33:42;1.60;99.30
33476;DHT22;19814;48.224;11.422;2023-03-01T03:36:08;1.60;99.30
33476;DHT22;19814;48.224;11.422;2023-03-01T03:38:38;1.70;99.40
33476;DHT22;19814;48.224;11.422;2023-03-01T03:41:05;1.70;99.50
33476;DHT22;19814;48.224;11.422;2023-03-01T03:43:32;1.70;99.30
33476;DHT22;19814;48.224;11.422;2023-03-01T03:45:58;1.70;99.20
33476;DHT22;19814;48.224;11.422;2023-03-01T03:48:24;1.70;99.60
33476;DHT22;19814;48.224;11.422;2023-03-01T03:50:51;1.60;99.10
33476;DHT22;19814;48.224;11.422;2023-03-01T03:53:17;1.50;99.40
33476;DHT22;19814;48.224;11.422;2023-03-01T03:55:43;1.40;99.60
33476;DHT22;19814;48.224;11.422;2023-03-01T03:58:10;1.40;99.70
33476;DHT22;19814;48.224;11.422;2023-03-01T04:00:36;1.40;99.80
33476;DHT22;19814;48.224;11.422;2023-03-01T04:03:02;1.50;99.90
33476;DHT22;19814;48.224;11.422;2023-03-01T04:05:28;1.50;99.50
33476;DHT22;19814;48.224;11.422;2023-03-01T04:07:53;1.40;99.50
33476;DHT22;19814;48.224;11.422;2023-03-01T04:10:27;1.50;99.50
33476;DHT22;19814;48.224;11.422;2023-03-01T04:12:52;1.50;99.50
33476;DHT22;19814;48.224;11.422;2023-03-01T04:15:20;1.50;99.40
33476;DHT22;19814;48.224;11.422;2023-03-01T04:17:46;1.50;99.00
33476;DHT22;19814;48.224;11.422;2023-03-01T04:20:16;1.30;99.20
33476;DHT22;19814;48.224;11.422;2023-03-01T04:22:57;1.20;99.70
33476;DHT22;19814;48.224;11.422;2023-03-01T04:25:23;1.30;99.90
33476;DHT22;19814;48.224;11.422;2023-03-01T04:27:48;1.30;99.50
33476;DHT22;19814;48.224;11.422;2023-03-01T04:30:14;1.20;99.70
33476;DHT22;19814;48.224;11.422;2023-03-01T04:32:39;1.10;99.50
33476;DHT22;19814;48.224;11.422;2023-03-01T04:35:05;1.10;99.90
33476;DHT22;19814;48.224;11.422;2023-03-01T04:37:30;1.10;99.90
33476;DHT22;19814;48.224;11.422;2023-03-01T04:39:56;1.10;99.90
33476;DHT22;19814;48.224;11.422;2023-03-01T04:42:21;1.10;99.90
33476;DHT22;19814;48.224;11.422;2023-03-01T04:44:47;1.00;99.90
33476;DHT22;19814;48.224;11.422;2023-03-01T04:47:12;1.00;99.90
33476;DHT22;19814;48.224;11.422;2023-03-01T04:49:38;1.10;99.80
33476;DHT22;19814;48.224;11.422;2023-03-01T04:52:04;1.10;99.60
33476;DHT22;19814;48.224;11.422;2023-03-01T04:54:30;1.10;99.40
33476;DHT22;19814;48.224;11.422;2023-03-01T04:56:55;0.90;99.40
33476;DHT22;19814;48.224;11.422;2023-03-01T04:59:21;0.80;99.80
33476;DHT22;19814;48.224;11.422;2023-03-01T05:01:51;0.80;99.80
33476;DHT22;19814;48.224;11.422;2023-03-01T05:04:17;0.70;99.70
33476;DHT22;19814;48.224;11.422;2023-03-01T05:06:42;0.60;99.90
33476;DHT22;19814;48.224;11.422;2023-03-01T05:09:08;0.60;99.90
33476;DHT22;19814;48.224;11.422;2023-03-01T05:11:33;0.60;99.90
33476;DHT22;19814;48.224;11.422;2023-03-01T05:14:01;0.50;99.80
33476;DHT22;19814;48.224;11.422;2023-03-01T05:16:27;0.40;99.90
33476;DHT22;19814;48.224;11.422;2023-03-01T05:18:52;0.30;99.90
33476;DHT22;19814;48.224;11.422;2023-03-01T05:21:17;0.20;99.90
33476;DHT22;19814;48.224;11.422;2023-03-01T05:23:43;0.20;99.90
33476;DHT22;19814;48.224;11.422;2023-03-01T05:26:09;0.20;99.90
33476;DHT22;19814;48.224;11.422;2023-03-01T05:28:35;0.20;99.90
33476;DHT22;19814;48.224;11.422;2023-03-01T05:31:00;0.20;99.90
33476;DHT22;19814;48.224;11.422;2023-03-01T05:33:26;0.10;99.90
33476;DHT22;19814;48.224;11.422;2023-03-01T05:35:52;0.20;99.90
33476;DHT22;19814;48.224;11.422;2023-03-01T05:38:18;0.30;99.90
33476;DHT22;19814;48.224;11.422;2023-03-01T05:40:45;0.40;99.90
33476;DHT22;19814;48.224;11.422;2023-03-01T05:43:11;0.40;99.90
33476;DHT22;19814;48.224;11.422;2023-03-01T05:45:37;0.40;99.90
33476;DHT22;19814;48.224;11.422;2023-03-01T05:48:03;0.40;99.90
33476;DHT22;19814;48.224;11.422;2023-03-01T05:50:32;0.30;99.90
33476;DHT22;19814;48.224;11.422;2023-03-01T05:52:58;0.20;99.90
33476;DHT22;19814;48.224;11.422;2023-03-01T05:55:24;0.20;99.90
33476;DHT22;19814;48.224;11.422;2023-03-01T05:57:50;0.20;99.90
33476;DHT22;19814;48.224;11.422;2023-03-01T06:00:17;0.20;99.90
33476;DHT22;19814;48.224;11.422;2023-03-01T06:02:43;0.30;99.90
33476;DHT22;19814;48.224;11.422;2023-03-01T06:05:09;0.40;99.90
33476;DHT22;19814;48.224;11.422;2023-03-01T06:07:34;0.40;99.90
33476;DHT22;19814;48.224;11.422;2023-03-01T06:10:01;0.40;99.90
33476;DHT22;19814;48.224;11.422;2023-03-01T06:12:29;0.40;99.90
33476;DHT22;19814;48.224;11.422;2023-03-01T06:14:55;0.40;99.90
33476;DHT22;19814;48.224;11.422;2023-03-01T06:17:20;0.40;99.90
33476;DHT22;19814;48.224;11.422;2023-03-01T06:19:46;0.40;99.90
33476;DHT22;19814;48.224;11.422;2023-03-01T06:22:12;0.30;99.90
33476;DHT22;19814;48.224;11.422;2023-03-01T06:24:38;0.30;99.90
33476;DHT22;19814;48.224;11.422;2023-03-01T06:27:03;0.30;99.90
33476;DHT22;19814;48.224;11.422;2023-03-01T06:29:29;0.40;99.90
33476;DHT22;19814;48.224;11.422;2023-03-01T06:31:54;0.40;99.90
33476;DHT22;19814;48.224;11.422;2023-03-01T06:34:20;0.40;99.90
33476;DHT22;19814;48.224;11.422;2023-03-01T06:36:46;0.50;99.90
33476;DHT22;19814;48.224;11.422;2023-03-01T06:39:12;0.60;99.90
33476;DHT22;19814;48.224;11.422;2023-03-01T06:41:37;0.60;99.90
33476;DHT22;19814;48.224;11.422;2023-03-01T06:44:03;0.60;99.90
33476;DHT22;19814;48.224;11.422;2023-03-01T06:46:29;0.70;99.90
33476;DHT22;19814;48.224;11.422;2023-03-01T06:48:54;0.70;99.90
33476;DHT22;19814;48.224;11.422;2023-03-01T06:51:19;0.70;99.80
33476;DHT22;19814;48.224;11.422;2023-03-01T06:53:45;0.60;99.90
33476;DHT22;19814;48.224;11.422;2023-03-01T06:56:11;0.50;99.90
33476;DHT22;19814;48.224;11.422;2023-03-01T06:58:36;0.60;99.90
33476;DHT22;19814;48.224;11.422;2023-03-01T07:01:05;0.60;99.90
33476;DHT22;19814;48.224;11.422;2023-03-01T07:03:30;0.60;99.90
33476;DHT22;19814;48.224;11.422;2023-03-01T07:05:56;0.70;99.90
33476;DHT22;19814;48.224;11.422;2023-03-01T07:08:21;0.70;99.90
33476;DHT22;19814;48.224;11.422;2023-03-01T07:10:47;0.70;99.90
33476;DHT22;19814;48.224;11.422;2023-03-01T07:13:12;0.70;99.90
33476;DHT22;19814;48.224;11.422;2023-03-01T07:15:39;0.70;99.90
33476;DHT22;19814;48.224;11.422;2023-03-01T07:18:05;0.70;99.90
33476;DHT22;19814;48.224;11.422;2023-03-01T07:20:30;0.70;99.80
33476;DHT22;19814;48.224;11.422;2023-03-01T07:22:56;0.80;99.60
33476;DHT22;19814;48.224;11.422;2023-03-01T07:25:23;0.70;99.60
33476;DHT22;19814;48.224;11.422;2023-03-01T07:27:52;0.80;99.90
33476;DHT22;19814;48.224;11.422;2023-03-01T07:30:18;0.90;99.60
33476;DHT22;19814;48.224;11.422;2023-03-01T07:32:44;1.00;99.80
33476;DHT22;19814;48.224;11.422;2023-03-01T07:35:10;1.10;99.50
33476;DHT22;19814;48.224;11.422;2023-03-01T07:37:36;1.00;99.20
33476;DHT22;19814;48.224;11.422;2023-03-01T07:40:01;1.00;99.20
33476;DHT22;19814;48.224;11.422;2023-03-01T07:42:27;1.00;98.90
33476;DHT22;19814;48.224;11.422;2023-03-01T07:44:52;1.00;99.40
33476;DHT22;19814;48.224;11.422;2023-03-01T07:47:18;0.90;99.50
33476;DHT22;19814;48.224;11.422;2023-03-01T07:49:43;1.00;99.20
33476;DHT22;19814;48.224;11.422;2023-03-01T07:52:09;1.00;99.50
33476;DHT22;19814;48.224;11.422;2023-03-01T07:54:35;1.00;99.60
33476;DHT22;19814;48.224;11.422;2023-03-01T07:57:00;1.00;99.50
33476;DHT22;19814;48.224;11.422;2023-03-01T07:59:26;1.10;99.30
33476;DHT22;19814;48.224;11.422;2023-03-01T08:01:54;1.10;99.20
33476;DHT22;19814;48.224;11.422;2023-03-01T08:04:20;1.10;98.70
33476;DHT22;19814;48.224;11.422;2023-03-01T08:06:46;1.10;98.90
33476;DHT22;19814;48.224;11.422;2023-03-01T08:09:11;1.10;98.70
33476;DHT22;19814;48.224;11.422;2023-03-01T08:11:37;1.10;98.80
33476;DHT22;19814;48.224;11.422;2023-03-01T08:14:02;1.30;98.80
33476;DHT22;19814;48.224;11.422;2023-03-01T08:16:28;1.30;98.30
33476;DHT22;19814;48.224;11.422;2023-03-01T08:18:53;1.40;98.60
33476;DHT22;19814;48.224;11.422;2023-03-01T08:21:21;1.50;98.30
33476;DHT22;19814;48.224;11.422;2023-03-01T08:23:47;1.50;98.00
33476;DHT22;19814;48.224;11.422;2023-03-01T08:26:14;1.80;98.00
33476;DHT22;19814;48.224;11.422;2023-03-01T08:28:40;1.80;97.30
33476;DHT22;19814;48.224;11.422;2023-03-01T08:33:40;1.90;97.30
33476;DHT22;19814;48.224;11.422;2023-03-01T08:36:06;1.90;97.30
33476;DHT22;19814;48.224;11.422;2023-03-01T08:38:32;2.00;97.40
33476;DHT22;19814;48.224;11.422;2023-03-01T08:41:02;2.10;97.30
33476;DHT22;19814;48.224;11.422;2023-03-01T08:43:27;2.20;97.00
33476;DHT22;19814;48.224;11.422;2023-03-01T08:45:53;2.20;97.00
33476;DHT22;19814;48.224;11.422;2023-03-01T08:48:18;2.30;97.20
33476;DHT22;19814;48.224;11.422;2023-03-01T08:50:44;2.40;96.90
33476;DHT22;19814;48.224;11.422;2023-03-01T08:53:09;2.50;96.50
33476;DHT22;19814;48.224;11.422;2023-03-01T08:55:35;2.60;96.20
33476;DHT22;19814;48.224;11.422;2023-03-01T08:58:00;2.60;96.70
33476;DHT22;19814;48.224;11.422;2023-03-01T09:00:26;2.70;96.20
33476;DHT22;19814;48.224;11.422;2023-03-01T09:02:51;2.60;96.10
33476;DHT22;19814;48.224;11.422;2023-03-01T09:05:16;2.60;96.40
33476;DHT22;19814;48.224;11.422;2023-03-01T09:07:42;2.80;96.50
33476;DHT22;19814;48.224;11.422;2023-03-01T09:10:08;2.80;95.80
33476;DHT22;19814;48.224;11.422;2023-03-01T09:12:33;2.80;96.30
33476;DHT22;19814;48.224;11.422;2023-03-01T09:14:59;2.70;96.20
33476;DHT22;19814;48.224;11.422;2023-03-01T09:17:24;2.80;96.00
33476;DHT22;19814;48.224;11.422;2023-03-01T09:19:50;2.70;96.10
33476;DHT22;19814;48.224;11.422;2023-03-01T09:22:15;2.70;96.40
33476;DHT22;19814;48.224;11.422;2023-03-01T09:24:41;2.70;96.60
33476;DHT22;19814;48.224;11.422;2023-03-01T09:27:06;2.90;96.50
33476;DHT22;19814;48.224;11.422;2023-03-01T09:29:35;2.90;95.90
33476;DHT22;19814;48.224;11.422;2023-03-01T09:32:00;2.70;96.00
33476;DHT22;19814;48.224;11.422;2023-03-01T09:34:26;2.70;96.50
33476;DHT22;19814;48.224;11.422;2023-03-01T09:36:52;2.70;96.10
33476;DHT22;19814;48.224;11.422;2023-03-01T09:39:17;2.80;96.20
33476;DHT22;19814;48.224;11.422;2023-03-01T09:44:24;3.00;95.80
33476;DHT22;19814;48.224;11.422;2023-03-01T09:46:51;2.90;96.00
33476;DHT22;19814;48.224;11.422;2023-03-01T09:49:18;3.00;96.10
33476;DHT22;19814;48.224;11.422;2023-03-01T09:51:47;3.00;95.80
33476;DHT22;19814;48.224;11.422;2023-03-01T09:54:15;2.90;96.40
33476;DHT22;19814;48.224;11.422;2023-03-01T09:56:48;3.10;96.40
33476;DHT22;19814;48.224;11.422;2023-03-01T09:59:25;3.30;95.60
33476;DHT22;19814;48.224;11.422;2023-03-01T10:09:39;3.40;96.20
33476;DHT22;19814;48.224;11.422;2023-03-01T10:12:10;3.60;96.20
33476;DHT22;19814;48.224;11.422;2023-03-01T10:14:43;3.90;95.80
33476;DHT22;19814;48.224;11.422;2023-03-01T10:17:16;4.20;94.60
33476;DHT22;19814;48.224;11.422;2023-03-01T10:19:43;4.30;94.40
33476;DHT22;19814;48.224;11.422;2023-03-01T10:22:13;4.50;93.60
33476;DHT22;19814;48.224;11.422;2023-03-01T10:24:40;4.80;94.40
33476;DHT22;19814;48.224;11.422;2023-03-01T10:27:12;6.10;92.00
33476;DHT22;19814;48.224;11.422;2023-03-01T10:29:48;6.50;90.40
33476;DHT22;19814;48.224;11.422;2023-03-01T10:32:15;6.60;90.20
33476;DHT22;19814;48.224;11.422;2023-03-01T10:34:41;6.70;90.30
33476;DHT22;19814;48.224;11.422;2023-03-01T10:37:17;8.10;89.20
33476;DHT22;19814;48.224;11.422;2023-03-01T10:39:56;10.00;83.30
33476;DHT22;19814;48.224;11.422;2023-03-01T10:42:25;11.30;76.20
33476;DHT22;19814;48.224;11.422;2023-03-01T10:44:51;11.90;75.00
33476;DHT22;19814;48.224;11.422;2023-03-01T10:50:01;13.20;67.50
33476;DHT22;19814;48.224;11.422;2023-03-01T10:52:31;13.20;68.70
33476;DHT22;19814;48.224;11.422;2023-03-01T10:55:02;13.80;62.40
33476;DHT22;19814;48.224;11.422;2023-03-01T10:57:29;13.40;65.60
33476;DHT22;19814;48.224;11.422;2023-03-01T11:02:39;13.90;61.30
33476;DHT22;19814;48.224;11.422;2023-03-01T11:07:47;14.50;58.30
33476;DHT22;19814;48.224;11.422;2023-03-01T11:10:16;15.30;59.10
33476;DHT22;19814;48.224;11.422;2023-03-01T11:12:42;16.30;56.10
33476;DHT22;19814;48.224;11.422;2023-03-01T11:15:08;15.80;54.70
33476;DHT22;19814;48.224;11.422;2023-03-01T11:17:44;14.90;56.90
33476;DHT22;19814;48.224;11.422;2023-03-01T11:22:41;14.30;57.30
33476;DHT22;19814;48.224;11.422;2023-03-01T11:25:11;14.20;56.80
33476;DHT22;19814;48.224;11.422;2023-03-01T11:27:40;12.80;58.40
33476;DHT22;19814;48.224;11.422;2023-03-01T11:30:20;12.10;61.70
33476;DHT22;19814;48.224;11.422;2023-03-01T11:32:48;12.90;58.60
33476;DHT22;19814;48.224;11.422;2023-03-01T11:35:18;13.30;58.30
33476;DHT22;19814;48.224;11.422;2023-03-01T11:37:50;14.40;56.70
33476;DHT22;19814;48.224;11.422;2023-03-01T11:43:26;15.90;53.90
33476;DHT22;19814;48.224;11.422;2023-03-01T11:50:47;17.40;49.90
33476;DHT22;19814;48.224;11.422;2023-03-01T11:53:29;16.20;52.60
33476;DHT22;19814;48.224;11.422;2023-03-01T12:01:17;16.80;51.90
33476;DHT22;19814;48.224;11.422;2023-03-01T12:12:09;16.50;49.80
33476;DHT22;19814;48.224;11.422;2023-03-01T12:17:11;17.00;50.00
33476;DHT22;19814;48.224;11.422;2023-03-01T12:27:22;16.30;49.80
33476;DHT22;19814;48.224;11.422;2023-03-01T12:42:56;15.80;51.40
33476;DHT22;19814;48.224;11.422;2023-03-01T12:45:32;15.80;51.20
33476;DHT22;19814;48.224;11.422;2023-03-01T12:48:09;15.80;51.70
33476;DHT22;19814;48.224;11.422;2023-03-01T12:50:40;15.80;51.50
33476;DHT22;19814;48.224;11.422;2023-03-01T12:53:07;15.20;54.00
33476;DHT22;19814;48.224;11.422;2023-03-01T12:55:42;14.60;54.40
33476;DHT22;19814;48.224;11.422;2023-03-01T13:03:52;12.10;57.70
33476;DHT22;19814;48.224;11.422;2023-03-01T13:11:35;10.50;63.70
33476;DHT22;19814;48.224;11.422;2023-03-01T13:14:34;10.30;63.90
33476;DHT22;19814;48.224;11.422;2023-03-01T13:16:46;9.90;65.50
33476;DHT22;19814;48.224;11.422;2023-03-01T13:21:46;9.60;66.70
33476;DHT22;19814;48.224;11.422;2023-03-01T13:29:44;9.30;68.00
33476;DHT22;19814;48.224;11.422;2023-03-01T13:32:20;9.10;69.90
33476;DHT22;19814;48.224;11.422;2023-03-01T13:34:56;8.90;70.20
33476;DHT22;19814;48.224;11.422;2023-03-01T13:37:24;8.50;71.40
33476;DHT22;19814;48.224;11.422;2023-03-01T13:39:51;8.30;72.90
33476;DHT22;19814;48.224;11.422;2023-03-01T13:42:36;8.50;73.90
33476;DHT22;19814;48.224;11.422;2023-03-01T13:45:03;8.60;72.40
33476;DHT22;19814;48.224;11.422;2023-03-01T13:47:29;8.70;71.60
33476;DHT22;19814;48.224;11.422;2023-03-01T13:49:56;8.70;72.80
33476;DHT22;19814;48.224;11.422;2023-03-01T13:54:51;8.60;73.10
33476;DHT22;19814;48.224;11.422;2023-03-01T13:57:20;8.70;72.90
33476;DHT22;19814;48.224;11.422;2023-03-01T13:59:47;8.70;73.10
33476;DHT22;19814;48.224;11.422;2023-03-01T14:02:12;8.80;73.80
33476;DHT22;19814;48.224;11.422;2023-03-01T14:04:38;8.60;73.40
33476;DHT22;19814;48.224;11.422;2023-03-01T14:07:19;8.70;72.00
33476;DHT22;19814;48.224;11.422;2023-03-01T14:09:45;8.60;73.70
33476;DHT22;19814;48.224;11.422;2023-03-01T14:19:47;8.30;77.10
33476;DHT22;19814;48.224;11.422;2023-03-01T14:22:18;8.30;76.30
33476;DHT22;19814;48.224;11.422;2023-03-01T14:24:49;8.30;75.10
33476;DHT22;19814;48.224;11.422;2023-03-01T14:27:15;8.40;76.40
33476;DHT22;19814;48.224;11.422;2023-03-01T14:29:41;8.40;74.90
33476;DHT22;19814;48.224;11.422;2023-03-01T14:32:21;8.40;75.80
33476;DHT22;19814;48.224;11.422;2023-03-01T14:34:47;8.40;75.30
33476;DHT22;19814;48.224;11.422;2023-03-01T14:37:30;8.20;77.30
33476;DHT22;19814;48.224;11.422;2023-03-01T14:39:56;8.30;76.30
33476;DHT22;19814;48.224;11.422;2023-03-01T14:42:23;8.40;75.10
33476;DHT22;19814;48.224;11.422;2023-03-01T14:44:50;8.50;76.80
33476;DHT22;19814;48.224;11.422;2023-03-01T14:47:30;8.50;76.30
33476;DHT22;19814;48.224;11.422;2023-03-01T14:49:57;8.40;75.80
33476;DHT22;19814;48.224;11.422;2023-03-01T14:52:25;8.20;77.00
33476;DHT22;19814;48.224;11.422;2023-03-01T14:54:53;8.20;78.20
33476;DHT22;19814;48.224;11.422;2023-03-01T14:57:21;8.30;78.10
33476;DHT22;19814;48.224;11.422;2023-03-01T14:59:47;8.50;78.70
33476;DHT22;19814;48.224;11.422;2023-03-01T15:02:14;8.70;77.50
33476;DHT22;19814;48.224;11.422;2023-03-01T15:04:43;8.70;77.30
33476;DHT22;19814;48.224;11.422;2023-03-01T15:07:11;8.50;77.50
33476;DHT22;19814;48.224;11.422;2023-03-01T15:09:39;8.30;78.40
33476;DHT22;19814;48.224;11.422;2023-03-01T15:14:48;8.10;79.00
33476;DHT22;19814;48.224;11.422;2023-03-01T15:17:26;8.00;79.80
33476;DHT22;19814;48.224;11.422;2023-03-01T15:19:54;7.90;80.50
33476;DHT22;19814;48.224;11.422;2023-03-01T15:22:20;7.90;80.10
33476;DHT22;19814;48.224;11.422;2023-03-01T15:24:49;7.80;80.50
33476;DHT22;19814;48.224;11.422;2023-03-01T15:27:24;7.80;81.10
33476;DHT22;19814;48.224;11.422;2023-03-01T15:29:59;7.80;81.70
33476;DHT22;19814;48.224;11.422;2023-03-01T15:32:34;7.70;81.50
33476;DHT22;19814;48.224;11.422;2023-03-01T15:35:00;7.60;82.40
33476;DHT22;19814;48.224;11.422;2023-03-01T15:37:45;7.50;82.20
33476;DHT22;19814;48.224;11.422;2023-03-01T15:40:26;7.50;83.10
33476;DHT22;19814;48.224;11.422;2023-03-01T15:43:01;7.50;83.70
33476;DHT22;19814;48.224;11.422;2023-03-01T15:45:28;7.50;83.70
33476;DHT22;19814;48.224;11.422;2023-03-01T15:47:58;7.40;83.50
33476;DHT22;19814;48.224;11.422;2023-03-01T15:50:28;7.40;84.20
33476;DHT22;19814;48.224;11.422;2023-03-01T15:52:54;7.40;84.20
33476;DHT22;19814;48.224;11.422;2023-03-01T15:55:21;7.30;84.90
33476;DHT22;19814;48.224;11.422;2023-03-01T15:57:47;7.30;85.70
33476;DHT22;19814;48.224;11.422;2023-03-01T16:00:13;7.30;85.80
33476;DHT22;19814;48.224;11.422;2023-03-01T16:02:39;7.40;85.70
33476;DHT22;19814;48.224;11.422;2023-03-01T16:05:05;7.40;85.80
33476;DHT22;19814;48.224;11.422;2023-03-01T16:07:30;7.30;86.10
33476;DHT22;19814;48.224;11.422;2023-03-01T16:09:56;7.30;86.80
33476;DHT22;19814;48.224;11.422;2023-03-01T16:12:22;7.30;86.00
33476;DHT22;19814;48.224;11.422;2023-03-01T16:14:49;7.20;86.60
33476;DHT22;19814;48.224;11.422;2023-03-01T16:17:15;7.20;87.50
33476;DHT22;19814;48.224;11.422;2023-03-01T16:19:40;7.10;86.80
33476;DHT22;19814;48.224;11.422;2023-03-01T16:22:06;7.10;87.60
33476;DHT22;19814;48.224;11.422;2023-03-01T16:24:31;7.10;87.90
33476;DHT22;19814;48.224;11.422;2023-03-01T16:26:57;7.00;88.40
33476;DHT22;19814;48.224;11.422;2023-03-01T16:29:22;7.00;88.30
33476;DHT22;19814;48.224;11.422;2023-03-01T16:31:48;7.00;88.40
33476;DHT22;19814;48.224;11.422;2023-03-01T16:34:13;7.00;88.40
33476;DHT22;19814;48.224;11.422;2023-03-01T16:36:39;7.00;88.80
33476;DHT22;19814;48.224;11.422;2023-03-01T16:39:04;6.90;89.00
33476;DHT22;19814;48.224;11.422;2023-03-01T16:41:30;6.90;89.70
33476;DHT22;19814;48.224;11.422;2023-03-01T16:43:56;6.80;90.30
33476;DHT22;19814;48.224;11.422;2023-03-01T16:46:23;6.80;90.20
33476;DHT22;19814;48.224;11.422;2023-03-01T16:48:49;6.70;90.40
33476;DHT22;19814;48.224;11.422;2023-03-01T16:51:14;6.60;90.50
33476;DHT22;19814;48.224;11.422;2023-03-01T16:53:40;6.60;90.90
33476;DHT22;19814;48.224;11.422;2023-03-01T16:56:06;6.60;90.80
33476;DHT22;19814;48.224;11.422;2023-03-01T16:58:33;6.60;91.00
33476;DHT22;19814;48.224;11.422;2023-03-01T17:01:03;6.50;91.30
33476;DHT22;19814;48.224;11.422;2023-03-01T17:03:28;6.50;91.70
33476;DHT22;19814;48.224;11.422;2023-03-01T17:05:54;6.50;91.60
33476;DHT22;19814;48.224;11.422;2023-03-01T17:08:20;6.40;91.90
33476;DHT22;19814;48.224;11.422;2023-03-01T17:10:45;6.40;92.00
33476;DHT22;19814;48.224;11.422;2023-03-01T17:13:11;6.30;92.30
33476;DHT22;19814;48.224;11.422;2023-03-01T17:15:40;6.20;92.40
33476;DHT22;19814;48.224;11.422;2023-03-01T17:18:06;6.20;92.50